sensor_id;sensor_type;location;lat;lon;timestamp;temperature;humidity
32839;DHT22;19182;41.820;12.808;2022-11-14T00:00:42;10.20;99.90
32839;DHT22;19182;41.820;12.808;2022-11-14T00:03:09;10.40;99.90
32839;DHT22;19182;41.820;12.808;2022-11-14T00:05:43;10.40;99.90
32839;DHT22;19182;41.820;12.808;2022-11-14T00:08:21;10.40;99.90
32839;DHT22;19182;41.820;12.808;2022-11-14T00:10:48;10.40;99.90
32839;DHT22;19182;41.820;12.808;2022-11-14T00:13:15;10.30;99.90
32839;DHT22;19182;41.820;12.808;2022-11-14T00:15:42;10.40;99.90
32839;DHT22;19182;41.820;12.808;2022-11-14T00:18:08;10.20;99.90
32839;DHT22;19182;41.820;12.808;2022-11-14T00:20:34;10.20;99.90
32839;DHT22;19182;41.820;12.808;2022-11-14T00:23:01;10.20;99.90
32839;DHT22;19182;41.820;12.808;2022-11-14T00:25:28;10.20;99.90
32839;DHT22;19182;41.820;12.808;2022-11-14T00:27:57;10.30;99.90
32839;DHT22;19182;41.820;12.808;2022-11-14T00:30:23;10.30;99.90
32839;DHT22;19182;41.820;12.808;2022-11-14T00:32:50;10.30;99.90
32839;DHT22;19182;41.820;12.808;2022-11-14T00:35:16;10.30;99.90
32839;DHT22;19182;41.820;12.808;2022-11-14T00:37:42;10.30;99.90
32839;DHT22;19182;41.820;12.808;2022-11-14T00:40:08;10.30;99.90
32839;DHT22;19182;41.820;12.808;2022-11-14T00:42:34;10.30;99.90
32839;DHT22;19182;41.820;12.808;2022-11-14T00:44:59;10.00;99.90
32839;DHT22;19182;41.820;12.808;2022-11-14T00:47:26;10.30;99.90
32839;DHT22;19182;41.820;12.808;2022-11-14T00:49:53;10.20;99.90
32839;DHT22;19182;41.820;12.808;2022-11-14T00:52:18;10.20;99.90
32839;DHT22;19182;41.820;12.808;2022-11-14T00:54:45;10.20;99.90
32839;DHT22;19182;41.820;12.808;2022-11-14T00:57:10;10.20;99.90
32839;DHT22;19182;41.820;12.808;2022-11-14T00:59:38;10.30;99.90
32839;DHT22;19182;41.820;12.808;2022-11-14T01:02:03;10.20;99.90
32839;DHT22;19182;41.820;12.808;2022-11-14T01:04:30;10.20;99.90
32839;DHT22;19182;41.820;12.808;2022-11-14T01:06:56;10.30;99.90
32839;DHT22;19182;41.820;12.808;2022-11-14T01:09:23;10.30;99.90
32839;DHT22;19182;41.820;12.808;2022-11-14T01:11:50;10.30;99.90
32839;DHT22;19182;41.820;12.808;2022-11-14T01:14:16;10.30;99.90
32839;DHT22;19182;41.820;12.808;2022-11-14T01:16:43;10.40;99.90
32839;DHT22;19182;41.820;12.808;2022-11-14T01:19:09;10.30;99.90
32839;DHT22;19182;41.820;12.808;2022-11-14T01:21:35;10.30;99.90
32839;DHT22;19182;41.820;12.808;2022-11-14T01:24:01;10.30;99.90
32839;DHT22;19182;41.820;12.808;2022-11-14T01:26:26;10.20;99.90
32839;DHT22;19182;41.820;12.808;2022-11-14T01:28:52;10.30;99.90
32839;DHT22;19182;41.820;12.808;2022-11-14T01:31:21;10.20;99.90
32839;DHT22;19182;41.820;12.808;2022-11-14T01:33:51;10.20;99.90
32839;DHT22;19182;41.820;12.808;2022-11-14T01:36:18;10.30;99.90
32839;DHT22;19182;41.820;12.808;2022-11-14T01:38:44;10.30;99.90
32839;DHT22;19182;41.820;12.808;2022-11-14T01:41:13;10.30;99.90
32839;DHT22;19182;41.820;12.808;2022-11-14T01:43:39;10.30;99.90
32839;DHT22;19182;41.820;12.808;2022-11-14T01:46:07;10.30;99.90
32839;DHT22;19182;41.820;12.808;2022-11-14T01:51:33;10.40;99.90
32839;DHT22;19182;41.820;12.808;2022-11-14T01:54:05;10.30;99.90
32839;DHT22;19182;41.820;12.808;2022-11-14T01:56:53;10.30;99.90
32839;DHT22;19182;41.820;12.808;2022-11-14T01:59:26;10.40;99.90
32839;DHT22;19182;41.820;12.808;2022-11-14T02:01:55;10.30;99.90
32839;DHT22;19182;41.820;12.808;2022-11-14T02:04:24;10.30;99.90
32839;DHT22;19182;41.820;12.808;2022-11-14T02:06:56;10.40;99.90
32839;DHT22;19182;41.820;12.808;2022-11-14T02:09:23;10.30;99.90
32839;DHT22;19182;41.820;12.808;2022-11-14T02:11:49;10.40;99.90
32839;DHT22;19182;41.820;12.808;2022-11-14T02:14:16;10.40;99.90
32839;DHT22;19182;41.820;12.808;2022-11-14T02:16:43;10.50;99.90
32839;DHT22;19182;41.820;12.808;2022-11-14T02:19:09;10.40;99.90
32839;DHT22;19182;41.820;12.808;2022-11-14T02:21:35;10.50;99.90
32839;DHT22;19182;41.820;12.808;2022-11-14T02:24:01;10.50;99.90
32839;DHT22;19182;41.820;12.808;2022-11-14T02:26:27;10.40;99.90
32839;DHT22;19182;41.820;12.808;2022-11-14T02:28:54;10.50;99.90
32839;DHT22;19182;41.820;12.808;2022-11-14T02:31:22;10.40;99.90
32839;DHT22;19182;41.820;12.808;2022-11-14T02:33:49;10.50;99.90
32839;DHT22;19182;41.820;12.808;2022-11-14T02:36:15;10.50;99.90
32839;DHT22;19182;41.820;12.808;2022-11-14T02:38:41;10.50;99.90
32839;DHT22;19182;41.820;12.808;2022-11-14T02:41:09;10.50;99.90
32839;DHT22;19182;41.820;12.808;2022-11-14T02:43:36;10.50;99.90
32839;DHT22;19182;41.820;12.808;2022-11-14T02:46:02;10.50;99.90
32839;DHT22;19182;41.820;12.808;2022-11-14T02:48:29;10.50;99.90
32839;DHT22;19182;41.820;12.808;2022-11-14T02:50:56;10.60;99.90
32839;DHT22;19182;41.820;12.808;2022-11-14T02:53:22;10.50;99.90
32839;DHT22;19182;41.820;12.808;2022-11-14T02:55:49;10.40;99.90
32839;DHT22;19182;41.820;12.808;2022-11-14T02:58:15;10.50;99.90
32839;DHT22;19182;41.820;12.808;2022-11-14T03:00:40;10.50;99.90
32839;DHT22;19182;41.820;12.808;2022-11-14T03:03:08;10.50;99.90
32839;DHT22;19182;41.820;12.808;2022-11-14T03:05:34;10.60;99.90
32839;DHT22;19182;41.820;12.808;2022-11-14T03:08:01;10.60;99.90
32839;DHT22;19182;41.820;12.808;2022-11-14T03:10:27;10.60;99.90
32839;DHT22;19182;41.820;12.808;2022-11-14T03:12:54;10.60;99.90
32839;DHT22;19182;41.820;12.808;2022-11-14T03:15:20;10.60;99.90
32839;DHT22;19182;41.820;12.808;2022-11-14T03:20:13;10.60;99.90
32839;DHT22;19182;41.820;12.808;2022-11-14T03:22:38;10.50;99.90
32839;DHT22;19182;41.820;12.808;2022-11-14T03:25:06;10.60;99.90
32839;DHT22;19182;41.820;12.808;2022-11-14T03:27:32;10.50;99.90
32839;DHT22;19182;41.820;12.808;2022-11-14T03:29:58;10.60;99.90
32839;DHT22;19182;41.820;12.808;2022-11-14T03:32:24;10.60;99.90
32839;DHT22;19182;41.820;12.808;2022-11-14T03:34:50;10.60;99.90
32839;DHT22;19182;41.820;12.808;2022-11-14T03:37:15;10.60;99.90
32839;DHT22;19182;41.820;12.808;2022-11-14T03:39:41;10.70;99.90
32839;DHT22;19182;41.820;12.808;2022-11-14T03:42:07;10.60;99.90
32839;DHT22;19182;41.820;12.808;2022-11-14T03:44:33;10.70;99.90
32839;DHT22;19182;41.820;12.808;2022-11-14T03:46:59;10.70;99.90
32839;DHT22;19182;41.820;12.808;2022-11-14T03:49:25;10.70;99.90
32839;DHT22;19182;41.820;12.808;2022-11-14T03:51:52;10.80;99.90
32839;DHT22;19182;41.820;12.808;2022-11-14T03:54:17;10.70;99.90
32839;DHT22;19182;41.820;12.808;2022-11-14T03:56:43;10.70;99.90
32839;DHT22;19182;41.820;12.808;2022-11-14T03:59:09;10.70;99.90
32839;DHT22;19182;41.820;12.808;2022-11-14T04:04:01;10.70;99.90
32839;DHT22;19182;41.820;12.808;2022-11-14T04:06:26;10.70;99.90
32839;DHT22;19182;41.820;12.808;2022-11-14T04:08:52;10.70;99.90
32839;DHT22;19182;41.820;12.808;2022-11-14T04:13:47;10.70;99.90
32839;DHT22;19182;41.820;12.808;2022-11-14T04:16:13;10.70;99.90
32839;DHT22;19182;41.820;12.808;2022-11-14T04:18:38;10.70;99.90
32839;DHT22;19182;41.820;12.808;2022-11-14T04:21:04;10.80;99.90
32839;DHT22;19182;41.820;12.808;2022-11-14T04:23:30;10.70;99.90
32839;DHT22;19182;41.820;12.808;2022-11-14T04:25:56;10.80;99.90
32839;DHT22;19182;41.820;12.808;2022-11-14T04:28:22;10.80;99.90
32839;DHT22;19182;41.820;12.808;2022-11-14T04:30:47;10.80;99.90
32839;DHT22;19182;41.820;12.808;2022-11-14T04:33:13;10.80;99.90
32839;DHT22;19182;41.820;12.808;2022-11-14T04:35:39;10.90;99.90
32839;DHT22;19182;41.820;12.808;2022-11-14T04:38:04;10.80;99.90
32839;DHT22;19182;41.820;12.808;2022-11-14T04:42:56;10.90;99.90
32839;DHT22;19182;41.820;12.808;2022-11-14T04:45:22;10.80;99.90
32839;DHT22;19182;41.820;12.808;2022-11-14T04:47:47;10.80;99.90
32839;DHT22;19182;41.820;12.808;2022-11-14T04:50:13;10.80;99.90
32839;DHT22;19182;41.820;12.808;2022-11-14T04:52:39;10.90;99.90
32839;DHT22;19182;41.820;12.808;2022-11-14T04:55:05;10.80;99.90
32839;DHT22;19182;41.820;12.808;2022-11-14T04:57:31;10.80;99.90
32839;DHT22;19182;41.820;12.808;2022-11-14T04:59:57;10.90;99.90
32839;DHT22;19182;41.820;12.808;2022-11-14T05:02:22;10.80;99.90
32839;DHT22;19182;41.820;12.808;2022-11-14T05:04:48;10.90;99.90
32839;DHT22;19182;41.820;12.808;2022-11-14T05:07:14;10.90;99.90
32839;DHT22;19182;41.820;12.808;2022-11-14T05:12:06;10.90;99.90
32839;DHT22;19182;41.820;12.808;2022-11-14T05:14:32;10.90;99.90
32839;DHT22;19182;41.820;12.808;2022-11-14T05:16:58;10.90;99.90
32839;DHT22;19182;41.820;12.808;2022-11-14T05:19:24;10.90;99.90
32839;DHT22;19182;41.820;12.808;2022-11-14T05:21:49;10.90;99.90
32839;DHT22;19182;41.820;12.808;2022-11-14T05:24:20;10.80;99.90
32839;DHT22;19182;41.820;12.808;2022-11-14T05:26:45;10.90;99.90
32839;DHT22;19182;41.820;12.808;2022-11-14T05:29:12;10.80;99.90
32839;DHT22;19182;41.820;12.808;2022-11-14T05:31:38;10.80;99.90
32839;DHT22;19182;41.820;12.808;2022-11-14T05:34:04;10.70;99.90
32839;DHT22;19182;41.820;12.808;2022-11-14T05:36:29;10.60;99.90
32839;DHT22;19182;41.820;12.808;2022-11-14T05:38:55;10.50;99.90
32839;DHT22;19182;41.820;12.808;2022-11-14T05:46:14;11.20;99.90
32839;DHT22;19182;41.820;12.808;2022-11-14T05:48:41;10.40;99.90
32839;DHT22;19182;41.820;12.808;2022-11-14T05:51:09;10.30;99.90
32839;DHT22;19182;41.820;12.808;2022-11-14T05:53:35;10.40;99.90
32839;DHT22;19182;41.820;12.808;2022-11-14T05:56:06;10.40;99.90
32839;DHT22;19182;41.820;12.808;2022-11-14T05:58:34;10.40;99.90
32839;DHT22;19182;41.820;12.808;2022-11-14T06:01:13;10.40;99.90
32839;DHT22;19182;41.820;12.808;2022-11-14T06:03:43;10.50;99.90
32839;DHT22;19182;41.820;12.808;2022-11-14T06:06:12;10.50;99.90
32839;DHT22;19182;41.820;12.808;2022-11-14T06:08:39;10.40;99.90
32839;DHT22;19182;41.820;12.808;2022-11-14T06:11:12;10.50;99.90
32839;DHT22;19182;41.820;12.808;2022-11-14T06:13:39;10.50;99.90
32839;DHT22;19182;41.820;12.808;2022-11-14T06:16:07;10.40;99.90
32839;DHT22;19182;41.820;12.808;2022-11-14T06:18:35;10.40;99.90
32839;DHT22;19182;41.820;12.808;2022-11-14T06:21:03;10.50;99.90
32839;DHT22;19182;41.820;12.808;2022-11-14T06:23:29;10.50;99.90
32839;DHT22;19182;41.820;12.808;2022-11-14T06:26:03;10.50;99.90
32839;DHT22;19182;41.820;12.808;2022-11-14T06:28:32;10.40;99.90
32839;DHT22;19182;41.820;12.808;2022-11-14T06:30:59;10.50;99.90
32839;DHT22;19182;41.820;12.808;2022-11-14T06:33:27;10.50;99.90
32839;DHT22;19182;41.820;12.808;2022-11-14T06:35:57;10.40;99.90
32839;DHT22;19182;41.820;12.808;2022-11-14T06:38:23;10.50;99.90
32839;DHT22;19182;41.820;12.808;2022-11-14T06:45:41;10.50;99.90
32839;DHT22;19182;41.820;12.808;2022-11-14T06:48:07;10.60;99.90
32839;DHT22;19182;41.820;12.808;2022-11-14T06:50:33;10.50;99.90
32839;DHT22;19182;41.820;12.808;2022-11-14T06:52:59;10.50;99.90
32839;DHT22;19182;41.820;12.808;2022-11-14T06:55:24;10.40;99.90
32839;DHT22;19182;41.820;12.808;2022-11-14T06:58:12;10.50;99.90
32839;DHT22;19182;41.820;12.808;2022-11-14T07:00:38;10.50;99.90
32839;DHT22;19182;41.820;12.808;2022-11-14T07:03:05;10.60;99.90
32839;DHT22;19182;41.820;12.808;2022-11-14T07:07:56;10.70;99.90
32839;DHT22;19182;41.820;12.808;2022-11-14T07:20:06;10.70;99.90
32839;DHT22;19182;41.820;12.808;2022-11-14T07:22:33;10.70;99.90
32839;DHT22;19182;41.820;12.808;2022-11-14T07:37:09;10.90;99.90
32839;DHT22;19182;41.820;12.808;2022-11-14T07:39:36;10.90;99.90
32839;DHT22;19182;41.820;12.808;2022-11-14T07:42:02;10.90;99.90
32839;DHT22;19182;41.820;12.808;2022-11-14T07:44:30;11.00;99.90
32839;DHT22;19182;41.820;12.808;2022-11-14T07:46:56;11.10;99.90
32839;DHT22;19182;41.820;12.808;2022-11-14T07:49:22;11.10;99.90
32839;DHT22;19182;41.820;12.808;2022-11-14T07:51:48;11.10;99.90
32839;DHT22;19182;41.820;12.808;2022-11-14T08:01:34;11.20;99.90
32839;DHT22;19182;41.820;12.808;2022-11-14T08:03:59;11.20;99.90
32839;DHT22;19182;41.820;12.808;2022-11-14T08:06:25;11.20;99.90
32839;DHT22;19182;41.820;12.808;2022-11-14T08:08:54;11.20;99.90
32839;DHT22;19182;41.820;12.808;2022-11-14T08:11:20;11.30;99.90
32839;DHT22;19182;41.820;12.808;2022-11-14T08:14:06;11.10;99.90
32839;DHT22;19182;41.820;12.808;2022-11-14T08:18:58;11.40;99.90
32839;DHT22;19182;41.820;12.808;2022-11-14T08:21:24;11.60;99.90
32839;DHT22;19182;41.820;12.808;2022-11-14T08:23:49;11.80;99.90
32839;DHT22;19182;41.820;12.808;2022-11-14T08:28:44;11.80;99.90
32839;DHT22;19182;41.820;12.808;2022-11-14T08:31:11;11.70;99.90
32839;DHT22;19182;41.820;12.808;2022-11-14T08:36:06;12.20;99.90
32839;DHT22;19182;41.820;12.808;2022-11-14T08:38:33;12.90;99.90
32839;DHT22;19182;41.820;12.808;2022-11-14T08:40:59;14.10;99.90
32839;DHT22;19182;41.820;12.808;2022-11-14T08:43:25;16.40;99.90
32839;DHT22;19182;41.820;12.808;2022-11-14T08:48:18;18.20;99.90
32839;DHT22;19182;41.820;12.808;2022-11-14T08:50:43;19.70;99.90
32839;DHT22;19182;41.820;12.808;2022-11-14T08:53:09;20.20;99.90
32839;DHT22;19182;41.820;12.808;2022-11-14T08:55:35;21.20;99.90
32839;DHT22;19182;41.820;12.808;2022-11-14T09:00:29;21.90;99.90
32839;DHT22;19182;41.820;12.808;2022-11-14T09:02:56;22.90;99.90
32839;DHT22;19182;41.820;12.808;2022-11-14T09:05:21;23.20;99.90
32839;DHT22;19182;41.820;12.808;2022-11-14T09:07:48;22.80;99.90
32839;DHT22;19182;41.820;12.808;2022-11-14T09:10:14;23.20;99.90
32839;DHT22;19182;41.820;12.808;2022-11-14T09:12:40;22.90;99.90
32839;DHT22;19182;41.820;12.808;2022-11-14T09:15:06;23.40;99.90
32839;DHT22;19182;41.820;12.808;2022-11-14T09:17:32;21.60;99.90
32839;DHT22;19182;41.820;12.808;2022-11-14T09:19:58;20.60;99.90
32839;DHT22;19182;41.820;12.808;2022-11-14T09:22:23;21.50;99.90
32839;DHT22;19182;41.820;12.808;2022-11-14T09:24:49;21.60;99.90
32839;DHT22;19182;41.820;12.808;2022-11-14T09:27:16;23.20;99.90
32839;DHT22;19182;41.820;12.808;2022-11-14T09:29:42;23.60;99.90
32839;DHT22;19182;41.820;12.808;2022-11-14T09:32:08;23.50;99.90
32839;DHT22;19182;41.820;12.808;2022-11-14T09:34:34;23.80;99.90
32839;DHT22;19182;41.820;12.808;2022-11-14T09:37:01;24.40;99.90
32839;DHT22;19182;41.820;12.808;2022-11-14T09:39:28;24.10;99.90
32839;DHT22;19182;41.820;12.808;2022-11-14T09:42:07;23.40;99.90
32839;DHT22;19182;41.820;12.808;2022-11-14T09:44:43;22.60;99.90
32839;DHT22;19182;41.820;12.808;2022-11-14T09:47:15;20.70;99.90
32839;DHT22;19182;41.820;12.808;2022-11-14T09:49:45;22.00;99.90
32839;DHT22;19182;41.820;12.808;2022-11-14T09:52:38;16.60;99.90
32839;DHT22;19182;41.820;12.808;2022-11-14T09:55:21;16.20;99.90
32839;DHT22;19182;41.820;12.808;2022-11-14T10:00:27;15.60;99.90
32839;DHT22;19182;41.820;12.808;2022-11-14T10:03:13;15.60;99.90
32839;DHT22;19182;41.820;12.808;2022-11-14T10:06:03;15.40;99.90
32839;DHT22;19182;41.820;12.808;2022-11-14T10:08:58;15.20;99.90
32839;DHT22;19182;41.820;12.808;2022-11-14T10:19:48;17.90;99.90
32839;DHT22;19182;41.820;12.808;2022-11-14T10:36:44;17.10;99.90
32839;DHT22;19182;41.820;12.808;2022-11-14T10:39:25;17.10;99.90
32839;DHT22;19182;41.820;12.808;2022-11-14T10:41:58;17.40;99.90
32839;DHT22;19182;41.820;12.808;2022-11-14T10:44:49;17.30;99.90
32839;DHT22;19182;41.820;12.808;2022-11-14T10:47:20;16.90;99.90
32839;DHT22;19182;41.820;12.808;2022-11-14T10:49:49;16.30;99.90
32839;DHT22;19182;41.820;12.808;2022-11-14T10:52:38;16.20;99.90
32839;DHT22;19182;41.820;12.808;2022-11-14T10:55:18;15.80;99.90
32839;DHT22;19182;41.820;12.808;2022-11-14T10:57:56;15.50;99.90
32839;DHT22;19182;41.820;12.808;2022-11-14T11:00:40;15.50;99.90
32839;DHT22;19182;41.820;12.808;2022-11-14T11:03:06;16.00;99.90
32839;DHT22;19182;41.820;12.808;2022-11-14T11:05:47;16.60;99.90
32839;DHT22;19182;41.820;12.808;2022-11-14T11:08:18;16.20;99.90
32839;DHT22;19182;41.820;12.808;2022-11-14T11:13:53;16.90;99.90
32839;DHT22;19182;41.820;12.808;2022-11-14T11:16:24;16.30;99.90
32839;DHT22;19182;41.820;12.808;2022-11-14T11:18:50;16.20;99.90
32839;DHT22;19182;41.820;12.808;2022-11-14T11:21:20;16.10;99.90
32839;DHT22;19182;41.820;12.808;2022-11-14T11:23:56;16.10;99.90
32839;DHT22;19182;41.820;12.808;2022-11-14T11:26:27;16.40;99.90
32839;DHT22;19182;41.820;12.808;2022-11-14T11:31:51;16.40;99.90
32839;DHT22;19182;41.820;12.808;2022-11-14T11:34:29;16.40;99.90
32839;DHT22;19182;41.820;12.808;2022-11-14T11:37:15;16.60;99.90
32839;DHT22;19182;41.820;12.808;2022-11-14T11:39:54;16.60;99.90
32839;DHT22;19182;41.820;12.808;2022-11-14T11:42:37;16.70;99.90
32839;DHT22;19182;41.820;12.808;2022-11-14T11:45:14;16.80;99.90
32839;DHT22;19182;41.820;12.808;2022-11-14T11:48:04;17.10;99.90
32839;DHT22;19182;41.820;12.808;2022-11-14T11:50:33;17.10;99.90
32839;DHT22;19182;41.820;12.808;2022-11-14T11:53:16;16.90;99.90
32839;DHT22;19182;41.820;12.808;2022-11-14T11:55:55;16.60;99.90
32839;DHT22;19182;41.820;12.808;2022-11-14T11:58:58;16.20;99.90
32839;DHT22;19182;41.820;12.808;2022-11-14T12:01:25;16.20;99.90
32839;DHT22;19182;41.820;12.808;2022-11-14T12:03:52;16.00;99.90
32839;DHT22;19182;41.820;12.808;2022-11-14T12:06:23;15.60;99.90
32839;DHT22;19182;41.820;12.808;2022-11-14T12:11:44;15.30;99.90
32839;DHT22;19182;41.820;12.808;2022-11-14T12:17:21;15.20;99.90
32839;DHT22;19182;41.820;12.808;2022-11-14T12:25:20;15.20;99.90
32839;DHT22;19182;41.820;12.808;2022-11-14T12:30:31;15.30;99.90
32839;DHT22;19182;41.820;12.808;2022-11-14T12:35:59;16.40;99.90
32839;DHT22;19182;41.820;12.808;2022-11-14T12:38:33;16.40;99.90
32839;DHT22;19182;41.820;12.808;2022-11-14T12:41:01;16.90;99.90
32839;DHT22;19182;41.820;12.808;2022-11-14T12:43:39;17.20;99.90
32839;DHT22;19182;41.820;12.808;2022-11-14T12:46:09;16.90;99.90
32839;DHT22;19182;41.820;12.808;2022-11-14T12:48:43;16.60;99.90
32839;DHT22;19182;41.820;12.808;2022-11-14T12:53:50;16.80;99.90
32839;DHT22;19182;41.820;12.808;2022-11-14T13:01:26;19.10;99.90
32839;DHT22;19182;41.820;12.808;2022-11-14T13:07:55;19.80;99.90
32839;DHT22;19182;41.820;12.808;2022-11-14T13:10:38;19.70;99.90
32839;DHT22;19182;41.820;12.808;2022-11-14T13:13:13;19.30;99.90
32839;DHT22;19182;41.820;12.808;2022-11-14T13:15:59;18.60;99.90
32839;DHT22;19182;41.820;12.808;2022-11-14T13:27:28;16.60;99.90
32839;DHT22;19182;41.820;12.808;2022-11-14T13:29:55;16.40;99.90
32839;DHT22;19182;41.820;12.808;2022-11-14T13:40:58;16.40;99.90
32839;DHT22;19182;41.820;12.808;2022-11-14T13:49:08;16.40;99.90
32839;DHT22;19182;41.820;12.808;2022-11-14T13:51:37;16.30;99.90
32839;DHT22;19182;41.820;12.808;2022-11-14T14:00:09;15.70;99.90
32839;DHT22;19182;41.820;12.808;2022-11-14T14:03:21;15.60;99.90
32839;DHT22;19182;41.820;12.808;2022-11-14T14:09:11;15.40;99.90
32839;DHT22;19182;41.820;12.808;2022-11-14T14:16:54;15.20;99.90
32839;DHT22;19182;41.820;12.808;2022-11-14T14:25:21;14.90;99.90
32839;DHT22;19182;41.820;12.808;2022-11-14T14:30:35;14.70;99.90
32839;DHT22;19182;41.820;12.808;2022-11-14T14:33:13;14.80;99.90
32839;DHT22;19182;41.820;12.808;2022-11-14T14:35:51;14.70;99.90
32839;DHT22;19182;41.820;12.808;2022-11-14T14:38:25;14.70;99.90
32839;DHT22;19182;41.820;12.808;2022-11-14T14:40:55;14.60;99.90
32839;DHT22;19182;41.820;12.808;2022-11-14T14:43:34;14.50;99.90
32839;DHT22;19182;41.820;12.808;2022-11-14T14:48:28;14.50;99.90
32839;DHT22;19182;41.820;12.808;2022-11-14T14:50:57;14.40;99.90
32839;DHT22;19182;41.820;12.808;2022-11-14T14:53:31;14.40;99.90
32839;DHT22;19182;41.820;12.808;2022-11-14T14:56:12;14.40;99.90
32839;DHT22;19182;41.820;12.808;2022-11-14T14:58:41;14.30;99.90
32839;DHT22;19182;41.820;12.808;2022-11-14T15:01:12;14.20;99.90
32839;DHT22;19182;41.820;12.808;2022-11-14T15:03:45;14.20;99.90
32839;DHT22;19182;41.820;12.808;2022-11-14T15:06:33;14.10;99.90
32839;DHT22;19182;41.820;12.808;2022-11-14T15:09:09;14.10;99.90
32839;DHT22;19182;41.820;12.808;2022-11-14T15:11:40;14.10;99.90
32839;DHT22;19182;41.820;12.808;2022-11-14T15:14:14;14.00;99.90
32839;DHT22;19182;41.820;12.808;2022-11-14T15:16:41;13.90;99.90
32839;DHT22;19182;41.820;12.808;2022-11-14T15:19:12;13.90;99.90
32839;DHT22;19182;41.820;12.808;2022-11-14T15:21:40;13.80;99.90
32839;DHT22;19182;41.820;12.808;2022-11-14T15:24:23;13.70;99.90
32839;DHT22;19182;41.820;12.808;2022-11-14T15:26:49;13.60;99.90
32839;DHT22;19182;41.820;12.808;2022-11-14T15:29:19;13.50;99.90
32839;DHT22;19182;41.820;12.808;2022-11-14T15:31:47;13.40;99.90
32839;DHT22;19182;41.820;12.808;2022-11-14T15:34:37;13.40;99.90
32839;DHT22;19182;41.820;12.808;2022-11-14T15:39:41;13.10;99.90
32839;DHT22;19182;41.820;12.808;2022-11-14T15:42:12;13.00;99.90
32839;DHT22;19182;41.820;12.808;2022-11-14T15:44:41;12.90;99.90
32839;DHT22;19182;41.820;12.808;2022-11-14T15:47:26;12.70;99.90
32839;DHT22;19182;41.820;12.808;2022-11-14T15:50:04;12.60;99.90
32839;DHT22;19182;41.820;12.808;2022-11-14T15:52:37;12.40;99.90
32839;DHT22;19182;41.820;12.808;2022-11-14T15:55:24;12.30;99.90
32839;DHT22;19182;41.820;12.808;2022-11-14T15:57:50;12.10;99.90
32839;DHT22;19182;41.820;12.808;2022-11-14T16:00:17;12.10;99.90
32839;DHT22;19182;41.820;12.808;2022-11-14T16:03:02;12.00;99.90
32839;DHT22;19182;41.820;12.808;2022-11-14T16:05:35;11.90;99.90
32839;DHT22;19182;41.820;12.808;2022-11-14T16:08:00;11.80;99.90
32839;DHT22;19182;41.820;12.808;2022-11-14T16:10:28;11.80;99.90
32839;DHT22;19182;41.820;12.808;2022-11-14T16:12:54;11.70;99.90
32839;DHT22;19182;41.820;12.808;2022-11-14T16:15:20;11.60;99.90
32839;DHT22;19182;41.820;12.808;2022-11-14T16:17:47;11.60;99.90
32839;DHT22;19182;41.820;12.808;2022-11-14T16:20:25;11.50;99.90
32839;DHT22;19182;41.820;12.808;2022-11-14T16:22:51;11.40;99.90
32839;DHT22;19182;41.820;12.808;2022-11-14T16:25:27;11.40;99.90
32839;DHT22;19182;41.820;12.808;2022-11-14T16:27:55;11.40;99.90
32839;DHT22;19182;41.820;12.808;2022-11-14T16:30:22;11.20;99.90
32839;DHT22;19182;41.820;12.808;2022-11-14T16:32:50;11.10;99.90
32839;DHT22;19182;41.820;12.808;2022-11-14T16:35:21;11.10;99.90
32839;DHT22;19182;41.820;12.808;2022-11-14T16:37:47;11.10;99.90
32839;DHT22;19182;41.820;12.808;2022-11-14T16:40:16;11.00;99.90
32839;DHT22;19182;41.820;12.808;2022-11-14T16:42:44;10.80;99.90
32839;DHT22;19182;41.820;12.808;2022-11-14T16:45:12;10.80;99.90
32839;DHT22;19182;41.820;12.808;2022-11-14T16:47:38;10.70;99.90
32839;DHT22;19182;41.820;12.808;2022-11-14T16:50:04;10.70;99.90
32839;DHT22;19182;41.820;12.808;2022-11-14T16:52:31;10.50;99.90
32839;DHT22;19182;41.820;12.808;2022-11-14T16:54:57;10.50;99.90
32839;DHT22;19182;41.820;12.808;2022-11-14T16:57:23;10.40;99.90
32839;DHT22;19182;41.820;12.808;2022-11-14T16:59:49;10.40;99.90
32839;DHT22;19182;41.820;12.808;2022-11-14T17:02:18;10.30;99.90
32839;DHT22;19182;41.820;12.808;2022-11-14T17:04:44;10.30;99.90
32839;DHT22;19182;41.820;12.808;2022-11-14T17:07:11;10.30;99.90
32839;DHT22;19182;41.820;12.808;2022-11-14T17:09:37;10.20;99.90
32839;DHT22;19182;41.820;12.808;2022-11-14T17:12:04;10.10;99.90
32839;DHT22;19182;41.820;12.808;2022-11-14T17:14:30;10.00;99.90
32839;DHT22;19182;41.820;12.808;2022-11-14T17:16:56;10.00;99.90
32839;DHT22;19182;41.820;12.808;2022-11-14T17:19:23;9.80;99.90
32839;DHT22;19182;41.820;12.808;2022-11-14T17:21:51;9.70;99.90
32839;DHT22;19182;41.820;12.808;2022-11-14T17:24:16;9.60;99.90
32839;DHT22;19182;41.820;12.808;2022-11-14T17:26:42;9.60;99.90
32839;DHT22;19182;41.820;12.808;2022-11-14T17:29:08;9.50;99.90
32839;DHT22;19182;41.820;12.808;2022-11-14T17:31:36;9.50;99.90
32839;DHT22;19182;41.820;12.808;2022-11-14T17:34:02;9.50;99.90
32839;DHT22;19182;41.820;12.808;2022-11-14T17:36:29;11.20;99.90
32839;DHT22;19182;41.820;12.808;2022-11-14T17:38:56;9.50;99.90
32839;DHT22;19182;41.820;12.808;2022-11-14T17:41:22;9.50;99.90
32839;DHT22;19182;41.820;12.808;2022-11-14T17:43:51;9.40;99.90
32839;DHT22;19182;41.820;12.808;2022-11-14T17:46:18;9.40;99.90
32839;DHT22;19182;41.820;12.808;2022-11-14T17:48:44;9.30;99.90
32839;DHT22;19182;41.820;12.808;2022-11-14T17:51:11;9.40;99.90
32839;DHT22;19182;41.820;12.808;2022-11-14T17:53:39;9.40;99.90
32839;DHT22;19182;41.820;12.808;2022-11-14T17:56:06;9.40;99.90
32839;DHT22;19182;41.820;12.808;2022-11-14T17:58:34;9.40;99.90
32839;DHT22;19182;41.820;12.808;2022-11-14T18:00:59;9.30;99.90
32839;DHT22;19182;41.820;12.808;2022-11-14T18:03:27;9.30;99.90
32839;DHT22;19182;41.820;12.808;2022-11-14T18:06:06;9.40;99.90
32839;DHT22;19182;41.820;12.808;2022-11-14T18:08:33;9.50;99.90
32839;DHT22;19182;41.820;12.808;2022-11-14T18:11:00;9.50;99.90
32839;DHT22;19182;41.820;12.808;2022-11-14T18:13:27;9.50;99.90
32839;DHT22;19182;41.820;12.808;2022-11-14T18:15:58;9.50;99.90
32839;DHT22;19182;41.820;12.808;2022-11-14T18:18:25;9.50;99.90
32839;DHT22;19182;41.820;12.808;2022-11-14T18:20:51;9.40;99.90
32839;DHT22;19182;41.820;12.808;2022-11-14T18:23:17;10.00;99.90
32839;DHT22;19182;41.820;12.808;2022-11-14T18:25:43;9.30;99.90
32839;DHT22;19182;41.820;12.808;2022-11-14T18:28:08;9.30;99.90
32839;DHT22;19182;41.820;12.808;2022-11-14T18:30:34;9.20;99.90